sensor_id;sensor_type;location;lat;lon;timestamp;P1;durP1;ratioP1;P2;durP2;ratioP2
80576;SDS011;69937;52.420;10.538;2023-08-07T08:15:34;3.53;;;2.22;;
80576;SDS011;69937;52.420;10.538;2023-08-07T08:20:35;4.72;;;1.70;;
80576;SDS011;69937;52.420;10.538;2023-08-07T08:25:37;5.40;;;1.63;;
80576;SDS011;69937;52.420;10.538;2023-08-07T08:30:37;2.60;;;1.40;;
80576;SDS011;69937;52.420;10.538;2023-08-07T08:35:38;3.08;;;1.35;;
80576;SDS011;69937;52.420;10.538;2023-08-07T08:40:39;6.85;;;1.13;;
80576;SDS011;69937;52.420;10.538;2023-08-07T08:45:40;3.53;;;1.58;;
80576;SDS011;69937;52.420;10.538;2023-08-07T08:50:41;3.80;;;1.40;;
80576;SDS011;69937;52.420;10.538;2023-08-07T08:55:43;3.35;;;1.30;;
80576;SDS011;69937;52.420;10.538;2023-08-07T09:00:47;6.55;;;1.35;;
80576;SDS011;69937;52.420;10.538;2023-08-07T09:05:48;3.28;;;1.77;;
80576;SDS011;69937;52.420;10.538;2023-08-07T09:10:51;4.07;;;1.20;;
80576;SDS011;69937;52.420;10.538;2023-08-07T09:15:52;3.92;;;1.38;;
80576;SDS011;69937;52.420;10.538;2023-08-07T09:20:53;3.28;;;1.33;;
80576;SDS011;69937;52.420;10.538;2023-08-07T09:26:01;5.18;;;1.08;;
80576;SDS011;69937;52.420;10.538;2023-08-07T09:31:06;4.20;;;1.52;;
80576;SDS011;69937;52.420;10.538;2023-08-07T09:36:09;3.63;;;1.25;;
80576;SDS011;69937;52.420;10.538;2023-08-07T09:41:09;2.75;;;1.30;;
80576;SDS011;69937;52.420;10.538;2023-08-07T09:46:10;3.30;;;1.40;;
80576;SDS011;69937;52.420;10.538;2023-08-07T09:51:10;3.20;;;1.20;;
80576;SDS011;69937;52.420;10.538;2023-08-07T09:56:11;3.58;;;1.40;;
80576;SDS011;69937;52.420;10.538;2023-08-07T10:01:14;4.88;;;1.48;;
80576;SDS011;69937;52.420;10.538;2023-08-07T10:06:16;4.63;;;1.45;;
80576;SDS011;69937;52.420;10.538;2023-08-07T10:11:19;7.78;;;1.52;;
80576;SDS011;69937;52.420;10.538;2023-08-07T10:16:20;5.40;;;1.13;;
80576;SDS011;69937;52.420;10.538;2023-08-07T10:21:21;4.70;;;1.13;;
80576;SDS011;69937;52.420;10.538;2023-08-07T10:26:23;7.57;;;2.10;;
80576;SDS011;69937;52.420;10.538;2023-08-07T10:31:24;8.07;;;1.90;;
80576;SDS011;69937;52.420;10.538;2023-08-07T10:36:31;6.55;;;1.35;;
80576;SDS011;69937;52.420;10.538;2023-08-07T10:41:41;4.53;;;1.08;;
80576;SDS011;69937;52.420;10.538;2023-08-07T10:46:51;5.05;;;1.10;;
80576;SDS011;69937;52.420;10.538;2023-08-07T10:51:53;5.45;;;1.48;;
80576;SDS011;69937;52.420;10.538;2023-08-07T10:56:55;5.63;;;1.23;;
80576;SDS011;69937;52.420;10.538;2023-08-07T11:01:56;5.10;;;0.93;;
80576;SDS011;69937;52.420;10.538;2023-08-07T11:06:56;4.47;;;0.85;;
80576;SDS011;69937;52.420;10.538;2023-08-07T11:11:57;3.03;;;1.00;;
80576;SDS011;69937;52.420;10.538;2023-08-07T11:16:57;3.00;;;0.98;;
80576;SDS011;69937;52.420;10.538;2023-08-07T11:21:58;9.00;;;1.10;;
80576;SDS011;69937;52.420;10.538;2023-08-07T11:26:58;3.83;;;1.02;;
80576;SDS011;69937;52.420;10.538;2023-08-07T11:31:59;6.88;;;1.10;;
80576;SDS011;69937;52.420;10.538;2023-08-07T11:37:00;4.43;;;1.25;;
80576;SDS011;69937;52.420;10.538;2023-08-07T11:42:00;4.70;;;1.10;;
80576;SDS011;69937;52.420;10.538;2023-08-07T11:47:02;5.35;;;1.27;;
80576;SDS011;69937;52.420;10.538;2023-08-07T11:52:02;8.95;;;1.42;;
80576;SDS011;69937;52.420;10.538;2023-08-07T11:57:03;4.80;;;1.23;;
80576;SDS011;69937;52.420;10.538;2023-08-07T12:02:15;5.03;;;1.42;;
80576;SDS011;69937;52.420;10.538;2023-08-07T12:07:19;12.07;;;1.25;;
80576;SDS011;69937;52.420;10.538;2023-08-07T12:12:26;4.72;;;1.20;;
80576;SDS011;69937;52.420;10.538;2023-08-07T12:17:30;2.45;;;0.77;;
80576;SDS011;69937;52.420;10.538;2023-08-07T12:22:34;6.68;;;1.23;;
80576;SDS011;69937;52.420;10.538;2023-08-07T12:27:35;3.55;;;1.35;;
80576;SDS011;69937;52.420;10.538;2023-08-07T12:32:36;5.78;;;1.38;;
80576;SDS011;69937;52.420;10.538;2023-08-07T12:37:36;5.03;;;1.08;;
80576;SDS011;69937;52.420;10.538;2023-08-07T12:42:37;2.95;;;1.00;;
80576;SDS011;69937;52.420;10.538;2023-08-07T12:47:37;3.10;;;0.80;;
80576;SDS011;69937;52.420;10.538;2023-08-07T12:52:38;4.32;;;0.80;;
80576;SDS011;69937;52.420;10.538;2023-08-07T12:57:42;2.10;;;0.52;;
80576;SDS011;69937;52.420;10.538;2023-08-07T13:02:44;5.93;;;0.70;;
80576;SDS011;69937;52.420;10.538;2023-08-07T13:07:46;2.30;;;0.68;;
80576;SDS011;69937;52.420;10.538;2023-08-07T13:12:47;2.78;;;0.70;;
80576;SDS011;69937;52.420;10.538;2023-08-07T13:17:49;4.15;;;0.55;;
80576;SDS011;69937;52.420;10.538;2023-08-07T13:22:49;1.55;;;0.45;;
80576;SDS011;69937;52.420;10.538;2023-08-07T13:27:50;2.03;;;0.55;;
80576;SDS011;69937;52.420;10.538;2023-08-07T13:32:50;1.65;;;0.55;;
80576;SDS011;69937;52.420;10.538;2023-08-07T13:37:51;3.80;;;0.77;;
80576;SDS011;69937;52.420;10.538;2023-08-07T13:42:51;6.32;;;0.80;;
80576;SDS011;69937;52.420;10.538;2023-08-07T13:47:53;4.70;;;0.80;;
80576;SDS011;69937;52.420;10.538;2023-08-07T13:52:53;2.88;;;0.90;;
80576;SDS011;69937;52.420;10.538;2023-08-07T13:57:54;1.92;;;0.73;;
80576;SDS011;69937;52.420;10.538;2023-08-07T14:02:54;3.13;;;1.00;;
80576;SDS011;69937;52.420;10.538;2023-08-07T14:07:55;3.50;;;0.98;;
80576;SDS011;69937;52.420;10.538;2023-08-07T14:12:57;8.07;;;1.38;;
80576;SDS011;69937;52.420;10.538;2023-08-07T14:17:58;10.57;;;0.82;;
80576;SDS011;69937;52.420;10.538;2023-08-07T14:22:58;2.22;;;0.60;;
80576;SDS011;69937;52.420;10.538;2023-08-07T14:27:59;1.73;;;0.65;;
80576;SDS011;69937;52.420;10.538;2023-08-07T14:33:00;3.22;;;0.70;;
80576;SDS011;69937;52.420;10.538;2023-08-07T14:38:00;2.33;;;0.50;;
80576;SDS011;69937;52.420;10.538;2023-08-07T14:43:01;5.80;;;0.77;;
80576;SDS011;69937;52.420;10.538;2023-08-07T14:48:01;2.85;;;0.80;;
80576;SDS011;69937;52.420;10.538;2023-08-07T14:53:02;3.80;;;1.13;;
80576;SDS011;69937;52.420;10.538;2023-08-07T14:58:03;3.10;;;1.48;;
80576;SDS011;69937;52.420;10.538;2023-08-07T15:03:04;4.30;;;0.95;;
80576;SDS011;69937;52.420;10.538;2023-08-07T15:08:04;4.18;;;1.13;;
80576;SDS011;69937;52.420;10.538;2023-08-07T15:13:05;6.38;;;1.10;;
80576;SDS011;69937;52.420;10.538;2023-08-07T15:18:05;3.75;;;0.82;;
80576;SDS011;69937;52.420;10.538;2023-08-07T15:23:06;4.32;;;0.93;;
80576;SDS011;69937;52.420;10.538;2023-08-07T15:28:07;4.40;;;1.05;;
80576;SDS011;69937;52.420;10.538;2023-08-07T15:33:07;3.22;;;1.05;;
80576;SDS011;69937;52.420;10.538;2023-08-07T15:38:08;3.58;;;1.10;;
80576;SDS011;69937;52.420;10.538;2023-08-07T15:43:11;6.05;;;1.13;;
80576;SDS011;69937;52.420;10.538;2023-08-07T15:48:12;5.00;;;1.35;;
80576;SDS011;69937;52.420;10.538;2023-08-07T15:53:12;3.20;;;1.23;;
80576;SDS011;69937;52.420;10.538;2023-08-07T15:58:13;4.28;;;1.08;;
80576;SDS011;69937;52.420;10.538;2023-08-07T16:03:14;3.45;;;1.00;;
80576;SDS011;69937;52.420;10.538;2023-08-07T16:08:14;2.33;;;1.00;;
80576;SDS011;69937;52.420;10.538;2023-08-07T16:13:15;6.60;;;1.40;;
80576;SDS011;69937;52.420;10.538;2023-08-07T16:18:16;5.00;;;1.25;;
80576;SDS011;69937;52.420;10.538;2023-08-07T16:23:16;4.15;;;1.55;;
80576;SDS011;69937;52.420;10.538;2023-08-07T16:28:17;5.82;;;1.27;;
80576;SDS011;69937;52.420;10.538;2023-08-07T16:33:19;3.17;;;1.17;;
80576;SDS011;69937;52.420;10.538;2023-08-07T16:38:19;5.90;;;1.30;;
80576;SDS011;69937;52.420;10.538;2023-08-07T16:43:20;2.22;;;1.08;;
80576;SDS011;69937;52.420;10.538;2023-08-07T16:48:20;2.22;;;0.95;;
80576;SDS011;69937;52.420;10.538;2023-08-07T16:53:21;3.42;;;1.23;;
80576;SDS011;69937;52.420;10.538;2023-08-07T16:58:21;4.22;;;1.15;;
80576;SDS011;69937;52.420;10.538;2023-08-07T17:03:22;2.55;;;1.00;;
80576;SDS011;69937;52.420;10.538;2023-08-07T17:08:22;2.63;;;0.93;;
80576;SDS011;69937;52.420;10.538;2023-08-07T17:13:23;2.13;;;1.05;;
80576;SDS011;69937;52.420;10.538;2023-08-07T17:18:25;4.18;;;1.40;;
80576;SDS011;69937;52.420;10.538;2023-08-07T17:23:25;2.60;;;1.10;;
80576;SDS011;69937;52.420;10.538;2023-08-07T17:28:27;3.75;;;1.08;;
80576;SDS011;69937;52.420;10.538;2023-08-07T17:33:29;3.65;;;1.00;;
80576;SDS011;69937;52.420;10.538;2023-08-07T17:38:29;5.15;;;1.13;;
80576;SDS011;69937;52.420;10.538;2023-08-07T17:43:30;5.53;;;1.42;;
80576;SDS011;69937;52.420;10.538;2023-08-07T17:48:30;5.55;;;1.35;;
80576;SDS011;69937;52.420;10.538;2023-08-07T17:53:31;3.35;;;1.23;;
80576;SDS011;69937;52.420;10.538;2023-08-07T17:58:32;6.15;;;1.17;;
80576;SDS011;69937;52.420;10.538;2023-08-07T18:03:32;5.32;;;1.13;;
80576;SDS011;69937;52.420;10.538;2023-08-07T18:08:33;3.22;;;1.50;;
80576;SDS011;69937;52.420;10.538;2023-08-07T18:13:33;4.82;;;1.50;;
80576;SDS011;69937;52.420;10.538;2023-08-07T18:18:34;2.45;;;1.20;;
80576;SDS011;69937;52.420;10.538;2023-08-07T18:23:34;6.07;;;1.20;;
80576;SDS011;69937;52.420;10.538;2023-08-07T18:28:35;3.05;;;1.52;;
80576;SDS011;69937;52.420;10.538;2023-08-07T18:33:36;3.05;;;1.23;;
80576;SDS011;69937;52.420;10.538;2023-08-07T18:38:37;4.75;;;1.38;;
80576;SDS011;69937;52.420;10.538;2023-08-07T18:43:37;4.13;;;1.63;;
80576;SDS011;69937;52.420;10.538;2023-08-07T18:48:38;4.13;;;1.83;;
80576;SDS011;69937;52.420;10.538;2023-08-07T18:53:39;3.80;;;2.05;;
80576;SDS011;69937;52.420;10.538;2023-08-07T18:58:39;1.92;;;1.35;;
80576;SDS011;69937;52.420;10.538;2023-08-07T19:03:40;4.35;;;1.45;;
80576;SDS011;69937;52.420;10.538;2023-08-07T19:08:40;3.50;;;1.73;;
80576;SDS011;69937;52.420;10.538;2023-08-07T19:13:41;4.32;;;1.42;;
80576;SDS011;69937;52.420;10.538;2023-08-07T19:18:41;8.38;;;2.20;;
80576;SDS011;69937;52.420;10.538;2023-08-07T19:23:42;5.93;;;2.30;;
80576;SDS011;69937;52.420;10.538;2023-08-07T19:28:43;4.88;;;2.00;;
80576;SDS011;69937;52.420;10.538;2023-08-07T19:33:43;4.32;;;1.92;;
80576;SDS011;69937;52.420;10.538;2023-08-07T19:38:44;4.72;;;2.38;;
80576;SDS011;69937;52.420;10.538;2023-08-07T19:43:44;6.85;;;2.28;;
80576;SDS011;69937;52.420;10.538;2023-08-07T19:48:47;4.63;;;1.83;;
80576;SDS011;69937;52.420;10.538;2023-08-07T19:53:47;5.72;;;2.40;;
80576;SDS011;69937;52.420;10.538;2023-08-07T19:58:48;3.88;;;2.72;;
80576;SDS011;69937;52.420;10.538;2023-08-07T20:03:49;4.72;;;1.85;;
80576;SDS011;69937;52.420;10.538;2023-08-07T20:08:49;7.88;;;2.08;;
80576;SDS011;69937;52.420;10.538;2023-08-07T20:13:49;4.82;;;1.77;;
80576;SDS011;69937;52.420;10.538;2023-08-07T20:18:50;3.67;;;1.77;;
80576;SDS011;69937;52.420;10.538;2023-08-07T20:23:51;4.38;;;1.77;;
80576;SDS011;69937;52.420;10.538;2023-08-07T20:28:51;4.85;;;2.17;;
80576;SDS011;69937;52.420;10.538;2023-08-07T20:33:52;4.38;;;2.25;;
80576;SDS011;69937;52.420;10.538;2023-08-07T20:38:58;4.97;;;2.17;;
80576;SDS011;69937;52.420;10.538;2023-08-07T20:43:58;8.43;;;2.13;;
80576;SDS011;69937;52.420;10.538;2023-08-07T20:48:59;6.07;;;2.33;;
80576;SDS011;69937;52.420;10.538;2023-08-07T20:53:59;4.50;;;2.00;;
80576;SDS011;69937;52.420;10.538;2023-08-07T20:59:00;3.95;;;1.80;;
80576;SDS011;69937;52.420;10.538;2023-08-07T21:04:01;3.05;;;1.75;;
80576;SDS011;69937;52.420;10.538;2023-08-07T21:09:02;4.88;;;1.52;;
80576;SDS011;69937;52.420;10.538;2023-08-07T21:14:02;10.60;;;2.40;;
80576;SDS011;69937;52.420;10.538;2023-08-07T21:19:03;3.38;;;1.55;;
80576;SDS011;69937;52.420;10.538;2023-08-07T21:24:03;3.35;;;2.00;;
80576;SDS011;69937;52.420;10.538;2023-08-07T21:29:07;5.22;;;1.60;;
80576;SDS011;69937;52.420;10.538;2023-08-07T21:34:08;5.13;;;1.98;;
80576;SDS011;69937;52.420;10.538;2023-08-07T21:39:11;5.43;;;1.60;;
80576;SDS011;69937;52.420;10.538;2023-08-07T21:44:12;3.38;;;1.48;;
80576;SDS011;69937;52.420;10.538;2023-08-07T21:49:12;5.03;;;1.80;;
80576;SDS011;69937;52.420;10.538;2023-08-07T21:54:13;3.10;;;2.08;;
80576;SDS011;69937;52.420;10.538;2023-08-07T21:59:13;4.03;;;1.88;;
80576;SDS011;69937;52.420;10.538;2023-08-07T22:04:14;5.13;;;1.73;;
80576;SDS011;69937;52.420;10.538;2023-08-07T22:09:14;2.65;;;1.35;;
80576;SDS011;69937;52.420;10.538;2023-08-07T22:14:15;4.47;;;1.55;;
80576;SDS011;69937;52.420;10.538;2023-08-07T22:19:16;4.72;;;1.65;;
80576;SDS011;69937;52.420;10.538;2023-08-07T22:24:16;2.78;;;1.63;;
80576;SDS011;69937;52.420;10.538;2023-08-07T22:29:17;4.97;;;1.88;;
80576;SDS011;69937;52.420;10.538;2023-08-07T22:34:17;3.30;;;1.40;;
80576;SDS011;69937;52.420;10.538;2023-08-07T22:39:18;2.92;;;1.75;;
80576;SDS011;69937;52.420;10.538;2023-08-07T22:44:18;3.67;;;1.92;;
80576;SDS011;69937;52.420;10.538;2023-08-07T22:49:19;2.45;;;1.23;;
80576;SDS011;69937;52.420;10.538;2023-08-07T22:54:22;4.53;;;2.05;;
80576;SDS011;69937;52.420;10.538;2023-08-07T22:59:24;3.92;;;2.03;;
80576;SDS011;69937;52.420;10.538;2023-08-07T23:04:25;6.55;;;2.08;;
80576;SDS011;69937;52.420;10.538;2023-08-07T23:09:25;4.13;;;2.58;;
80576;SDS011;69937;52.420;10.538;2023-08-07T23:14:26;3.67;;;1.85;;
80576;SDS011;69937;52.420;10.538;2023-08-07T23:19:27;6.82;;;1.98;;
80576;SDS011;69937;52.420;10.538;2023-08-07T23:24:27;4.05;;;1.70;;
80576;SDS011;69937;52.420;10.538;2023-08-07T23:29:28;5.82;;;2.15;;
80576;SDS011;69937;52.420;10.538;2023-08-07T23:34:28;4.68;;;2.30;;
80576;SDS011;69937;52.420;10.538;2023-08-07T23:39:29;2.75;;;1.70;;
80576;SDS011;69937;52.420;10.538;2023-08-07T23:44:29;2.92;;;1.95;;
80576;SDS011;69937;52.420;10.538;2023-08-07T23:49:30;2.88;;;1.88;;
80576;SDS011;69937;52.420;10.538;2023-08-07T23:54:31;4.90;;;2.00;;
80576;SDS011;69937;52.420;10.538;2023-08-07T23:59:31;3.00;;;2.08;;
